createdAt,value
2022-12-04T00:01:18.668Z,73.45
2022-12-04T00:03:46.884Z,99.50
2022-12-04T00:06:15.994Z,77.97
2022-12-04T00:08:44.499Z,75.63
2022-12-04T00:11:13.528Z,97.70
2022-12-04T00:13:42.186Z,78.93
2022-12-04T00:16:12.067Z,86.75
2022-12-04T00:18:42.217Z,90.68
2022-12-04T00:21:11.857Z,83.63
2022-12-04T00:23:40.199Z,72.78
2022-12-04T00:26:09.527Z,77.28
2022-12-04T00:28:38.606Z,84.63
2022-12-04T00:31:07.638Z,70.07
2022-12-04T00:33:35.709Z,91.47
2022-12-04T00:36:07.899Z,93.75
2022-12-04T00:38:36.202Z,82.82
2022-12-04T00:41:04.607Z,84.68
2022-12-04T00:43:32.850Z,83.50
2022-12-04T00:46:00.669Z,102.47
2022-12-04T00:48:28.708Z,79.53
2022-12-04T00:50:58.267Z,96.18
2022-12-04T00:53:27.402Z,94.10
2022-12-04T00:55:55.161Z,84.18
2022-12-04T00:58:23.180Z,85.78
2022-12-04T01:00:51.204Z,101.40
2022-12-04T01:03:19.786Z,84.97
2022-12-04T01:05:47.873Z,93.78
2022-12-04T01:08:15.829Z,77.00
2022-12-04T01:10:45.051Z,84.57
2022-12-04T01:13:12.842Z,84.13
2022-12-04T01:15:42.455Z,97.15
2022-12-04T01:18:10.624Z,90.32
2022-12-04T01:20:38.544Z,94.93
2022-12-04T01:23:06.500Z,87.13
2022-12-04T01:25:34.422Z,83.88
2022-12-04T01:28:03.583Z,90.40
2022-12-04T01:30:31.390Z,93.20
2022-12-04T01:32:59.286Z,90.55
2022-12-04T01:35:27.167Z,106.88
2022-12-04T01:37:54.945Z,99.28
2022-12-04T01:40:23.069Z,99.63
2022-12-04T01:42:50.933Z,107.38
2022-12-04T01:45:42.242Z,86.70
2022-12-04T01:48:14.831Z,96.57
2022-12-04T01:50:43.532Z,82.38
2022-12-04T01:53:12.179Z,95.72
2022-12-04T01:55:40.472Z,93.10
2022-12-04T01:58:08.802Z,92.18
2022-12-04T02:00:36.648Z,81.78
2022-12-04T02:03:05.904Z,92.10
2022-12-04T02:05:33.815Z,87.22
2022-12-04T02:08:04.602Z,89.07
2022-12-04T02:10:37.910Z,90.15
2022-12-04T02:13:09.157Z,100.30
2022-12-04T02:15:42.416Z,97.22
2022-12-04T02:18:19.135Z,96.50
2022-12-04T02:20:52.343Z,104.47
2022-12-04T02:23:38.326Z,100.18
2022-12-04T02:26:21.063Z,100.53
2022-12-04T02:28:53.040Z,93.03
2022-12-04T02:31:24.110Z,100.78
2022-12-04T02:33:57.634Z,101.82
2022-12-04T02:36:28.884Z,83.03
2022-12-04T02:38:58.495Z,103.07
2022-12-04T02:41:28.868Z,105.60
2022-12-04T02:44:01.681Z,101.47
2022-12-04T02:46:32.974Z,95.57
2022-12-04T02:49:04.346Z,101.78
2022-12-04T02:51:34.506Z,84.35
2022-12-04T02:54:06.106Z,85.30
2022-12-04T02:56:37.011Z,100.07
2022-12-04T02:59:09.437Z,97.00
2022-12-04T03:01:41.262Z,101.93
2022-12-04T03:04:13.624Z,99.72
2022-12-04T03:06:43.166Z,102.70
2022-12-04T03:09:13.069Z,92.78
2022-12-04T03:11:43.519Z,93.60
2022-12-04T03:14:14.979Z,103.93
2022-12-04T03:16:43.700Z,91.18
2022-12-04T03:19:14.670Z,104.13
2022-12-04T03:21:48.893Z,93.55
2022-12-04T03:24:20.622Z,92.40
2022-12-04T03:26:49.527Z,98.05
2022-12-04T03:29:22.192Z,105.65
2022-12-04T03:31:51.876Z,100.15
2022-12-04T03:34:27.458Z,104.13
2022-12-04T03:37:00.534Z,101.80
2022-12-04T03:39:32.489Z,102.35
2022-12-04T03:42:01.615Z,92.97
2022-12-04T03:44:36.768Z,99.20
2022-12-04T03:47:07.987Z,89.60
2022-12-04T03:49:43.520Z,90.85
2022-12-04T03:52:15.522Z,100.05
2022-12-04T03:54:47.301Z,93.53
2022-12-04T03:57:17.699Z,109.50
2022-12-04T03:59:55.586Z,88.32
2022-12-04T04:02:26.077Z,78.68
2022-12-04T04:04:56.942Z,103.25
2022-12-04T04:07:34.852Z,86.25
2022-12-04T04:10:07.751Z,90.82
2022-12-04T04:12:40.982Z,102.50
2022-12-04T04:15:31.125Z,95.40
2022-12-04T04:18:17.353Z,91.53
2022-12-04T04:21:04.888Z,95.10
2022-12-04T04:23:52.851Z,94.03
2022-12-04T04:26:21.953Z,91.22
2022-12-04T04:28:49.786Z,112.95
2022-12-04T04:31:26.009Z,85.80
2022-12-04T04:34:00.735Z,93.13
2022-12-04T04:36:36.806Z,103.00
2022-12-04T04:39:09.336Z,100.32
2022-12-04T04:41:41.735Z,90.60
2022-12-04T04:44:15.432Z,89.90
2022-12-04T04:46:47.768Z,79.72
2022-12-04T04:49:16.273Z,99.38
2022-12-04T04:51:44.676Z,88.13
2022-12-04T04:54:14.742Z,88.07
2022-12-04T04:56:43.472Z,80.40
2022-12-04T04:59:12.767Z,87.50
2022-12-04T05:01:41.435Z,80.15
2022-12-04T05:04:11.822Z,110.88
2022-12-04T05:06:39.865Z,80.82
2022-12-04T05:09:07.662Z,92.30
2022-12-04T05:11:35.497Z,98.97
2022-12-04T05:14:03.608Z,117.70
2022-12-04T05:16:32.377Z,100.13
2022-12-04T05:19:17.643Z,80.45
2022-12-04T05:21:46.872Z,78.97
2022-12-04T05:24:14.677Z,93.35
2022-12-04T05:26:42.530Z,108.10
2022-12-04T05:29:10.303Z,96.75
2022-12-04T05:31:38.372Z,79.30
2022-12-04T05:34:06.497Z,111.45
2022-12-04T05:36:34.393Z,82.85
2022-12-04T05:39:03.546Z,77.78
2022-12-04T05:41:31.407Z,88.00
2022-12-04T05:43:59.217Z,99.30
2022-12-04T05:46:27.062Z,83.25
2022-12-04T05:48:54.896Z,92.38
2022-12-04T05:51:22.645Z,82.70
2022-12-04T05:53:52.568Z,90.10
2022-12-04T05:56:22.043Z,78.63
2022-12-04T05:58:50.166Z,100.38
2022-12-04T06:01:19.705Z,93.47
2022-12-04T06:03:47.576Z,94.47
2022-12-04T06:06:21.010Z,85.80
2022-12-04T06:08:50.050Z,82.18
2022-12-04T06:11:20.555Z,74.32
2022-12-04T06:13:49.920Z,89.22
2022-12-04T06:16:19.130Z,88.10
2022-12-04T06:18:50.626Z,78.70
2022-12-04T06:21:19.169Z,83.82
2022-12-04T06:23:46.971Z,104.07
2022-12-04T06:26:14.798Z,86.30
2022-12-04T06:28:42.534Z,104.85
2022-12-04T06:31:13.705Z,81.50
2022-12-04T06:33:41.635Z,90.15
2022-12-04T06:36:14.125Z,86.38
2022-12-04T06:38:42.762Z,87.03
2022-12-04T06:41:12.605Z,84.95
2022-12-04T06:43:40.937Z,84.63
2022-12-04T06:46:12.814Z,74.53
2022-12-04T06:48:41.182Z,82.45
2022-12-04T06:51:12.742Z,83.40
2022-12-04T06:53:41.176Z,72.47
2022-12-04T06:56:11.221Z,99.07
2022-12-04T06:58:39.090Z,80.63
2022-12-04T07:01:08.105Z,90.22
2022-12-04T07:03:37.386Z,94.90
2022-12-04T07:06:13.298Z,88.73
2022-12-04T07:08:41.127Z,84.75
2022-12-04T07:11:09.111Z,79.95
2022-12-04T07:13:36.912Z,98.22
2022-12-04T07:16:07.839Z,92.68
2022-12-04T07:18:37.841Z,86.25
2022-12-04T07:21:07.307Z,73.18
2022-12-04T07:23:35.157Z,90.55
2022-12-04T07:26:05.899Z,76.05
2022-12-04T07:28:33.878Z,81.85
2022-12-04T07:31:05.459Z,102.10
2022-12-04T07:33:33.363Z,83.35
2022-12-04T07:36:04.275Z,80.90
2022-12-04T07:38:33.513Z,77.53
2022-12-04T07:41:02.752Z,95.18
2022-12-04T07:43:31.683Z,78.90
2022-12-04T07:46:00.132Z,71.60
2022-12-04T07:48:33.143Z,83.53
2022-12-04T07:51:08.888Z,77.15
2022-12-04T07:53:40.027Z,82.82
2022-12-04T07:56:08.788Z,78.47
2022-12-04T07:58:36.610Z,95.13
2022-12-04T08:01:09.620Z,79.63
2022-12-04T08:03:42.125Z,81.93
2022-12-04T08:06:14.693Z,92.90
2022-12-04T08:08:42.561Z,109.95
2022-12-04T08:11:13.262Z,88.03
2022-12-04T08:13:41.078Z,85.20
2022-12-04T08:16:10.981Z,82.30
2022-12-04T08:18:39.848Z,95.63
2022-12-04T08:21:09.113Z,97.00
2022-12-04T08:23:38.986Z,82.95
2022-12-04T08:26:07.339Z,67.93
2022-12-04T08:28:35.505Z,85.25
2022-12-04T08:31:04.552Z,81.97
2022-12-04T08:33:32.711Z,83.67
2022-12-04T08:36:01.132Z,73.47
2022-12-04T08:38:29.118Z,83.28
2022-12-04T08:41:02.194Z,77.55
2022-12-04T08:43:30.352Z,88.70
2022-12-04T08:45:58.886Z,67.37
2022-12-04T08:48:27.495Z,78.28
2022-12-04T08:50:55.866Z,72.87
2022-12-04T08:53:25.243Z,72.83
2022-12-04T08:55:53.407Z,75.20
2022-12-04T08:58:22.891Z,82.32
2022-12-04T09:00:51.070Z,72.27
2022-12-04T09:03:23.651Z,65.82
2022-12-04T09:05:59.790Z,90.50
2022-12-04T09:08:27.612Z,76.50
2022-12-04T09:10:55.461Z,73.90
2022-12-04T09:13:24.711Z,83.32
2022-12-04T09:15:52.550Z,75.70
2022-12-04T09:18:20.392Z,89.60
2022-12-04T09:20:56.972Z,81.70
2022-12-04T09:23:25.092Z,81.23
2022-12-04T09:25:53.053Z,89.35
2022-12-04T09:28:21.202Z,85.63
2022-12-04T09:30:59.176Z,87.72
2022-12-04T09:33:27.259Z,72.80
2022-12-04T09:35:55.295Z,69.50
2022-12-04T09:38:23.088Z,76.10
2022-12-04T09:40:55.864Z,76.97
2022-12-04T09:43:30.375Z,62.65
2022-12-04T09:46:02.995Z,70.33
2022-12-04T09:48:34.803Z,91.30
2022-12-04T09:51:03.266Z,68.23
2022-12-04T09:53:38.187Z,68.05
2022-12-04T09:56:08.397Z,68.33
2022-12-04T09:58:41.436Z,74.60
2022-12-04T10:01:20.868Z,65.50
2022-12-04T10:03:49.039Z,80.03
2022-12-04T10:06:20.453Z,61.10
2022-12-04T10:08:52.669Z,70.33
2022-12-04T10:11:30.692Z,62.93
2022-12-04T10:14:18.248Z,62.37
2022-12-04T10:17:13.503Z,71.77
2022-12-04T10:19:47.351Z,67.67
2022-12-04T10:22:20.603Z,77.27
2022-12-04T10:24:50.702Z,65.23
2022-12-04T10:27:23.288Z,67.17
2022-12-04T10:29:54.815Z,67.70
2022-12-04T10:32:28.481Z,80.10
2022-12-04T10:34:58.910Z,64.47
2022-12-04T10:37:26.838Z,72.07
2022-12-04T10:39:58.831Z,66.00
2022-12-04T10:42:33.423Z,71.90
2022-12-04T10:45:01.276Z,73.67
2022-12-04T10:47:31.054Z,58.40
2022-12-04T10:50:01.898Z,72.20
2022-12-04T10:52:29.811Z,83.80
2022-12-04T10:55:05.092Z,68.37
2022-12-04T10:57:37.894Z,90.63
2022-12-04T11:00:25.238Z,69.37
2022-12-04T11:02:55.806Z,64.33
2022-12-04T11:05:26.593Z,69.67
2022-12-04T11:07:55.321Z,60.10
2022-12-04T11:10:26.699Z,64.30
2022-12-04T11:12:56.037Z,59.93
2022-12-04T11:15:24.647Z,70.80
2022-12-04T11:17:53.931Z,72.03
2022-12-04T11:20:23.963Z,68.23
2022-12-04T11:22:54.068Z,83.03
2022-12-04T11:25:23.098Z,69.53
2022-12-04T11:27:53.365Z,55.50
2022-12-04T11:30:23.930Z,57.80
2022-12-04T11:32:52.015Z,69.20
2022-12-04T11:35:23.806Z,68.73
2022-12-04T11:37:57.636Z,64.13
2022-12-04T11:40:26.462Z,64.33
2022-12-04T11:43:05.904Z,58.10
2022-12-04T11:45:34.067Z,56.37
2022-12-04T11:48:04.468Z,64.30
2022-12-04T11:50:39.948Z,70.37
2022-12-04T11:53:16.109Z,65.90
2022-12-04T11:56:10.316Z,67.60
2022-12-04T11:58:52.568Z,56.70
2022-12-04T12:01:29.723Z,50.70
2022-12-04T12:04:09.440Z,53.73
2022-12-04T12:06:40.624Z,50.13
2022-12-04T12:09:22.437Z,50.50
2022-12-04T12:11:53.548Z,50.57
2022-12-04T12:14:28.193Z,61.03
2022-12-04T12:17:00.357Z,61.80
2022-12-04T12:19:46.901Z,51.30
2022-12-04T12:22:26.140Z,55.53
2022-12-04T12:25:01.518Z,45.47
2022-12-04T12:27:42.248Z,63.07
2022-12-04T12:30:16.221Z,62.33
2022-12-04T12:33:09.303Z,67.23
2022-12-04T12:35:40.030Z,51.03
2022-12-04T12:38:12.716Z,75.43
2022-12-04T12:40:42.776Z,63.50
2022-12-04T12:43:15.921Z,63.73
2022-12-04T12:45:48.362Z,59.90
2022-12-04T12:48:24.856Z,55.10
2022-12-04T12:51:14.764Z,70.43
2022-12-04T12:53:47.974Z,57.10
2022-12-04T12:56:17.298Z,70.13
2022-12-04T12:58:48.356Z,46.07
2022-12-04T13:01:19.685Z,55.10
2022-12-04T13:03:53.550Z,53.97
2022-12-04T13:06:25.915Z,50.13
2022-12-04T13:09:05.008Z,51.10
2022-12-04T13:11:33.793Z,68.03
2022-12-04T13:14:04.409Z,65.60
2022-12-04T13:16:34.905Z,63.77
2022-12-04T13:19:09.116Z,56.00
2022-12-04T13:21:38.759Z,58.97
2022-12-04T13:24:47.590Z,50.57
2022-12-04T13:27:21.688Z,54.97
2022-12-04T13:30:02.837Z,55.77
2022-12-04T13:32:47.440Z,52.77
2022-12-04T13:35:20.906Z,68.50
2022-12-04T13:38:03.692Z,62.40
2022-12-04T13:40:38.583Z,63.17
2022-12-04T13:43:20.392Z,58.80
2022-12-04T13:45:50.604Z,60.80
2022-12-04T13:48:29.474Z,66.20
2022-12-04T13:51:06.634Z,57.13
2022-12-04T13:53:37.271Z,60.07
2022-12-04T13:56:10.313Z,85.47
2022-12-04T13:58:40.160Z,72.93
2022-12-04T14:01:21.843Z,62.43
2022-12-04T14:03:50.942Z,67.43
2022-12-04T14:06:23.735Z,54.27
2022-12-04T14:08:56.127Z,78.13
2022-12-04T14:11:25.812Z,62.80
2022-12-04T14:13:55.223Z,67.90
2022-12-04T14:16:25.101Z,71.37
2022-12-04T14:18:56.294Z,57.33
2022-12-04T14:21:24.691Z,75.17
2022-12-04T14:23:53.294Z,71.17
2022-12-04T14:26:48.943Z,77.03
2022-12-04T14:29:33.833Z,68.50
2022-12-04T14:32:09.049Z,77.30
2022-12-04T14:34:38.708Z,76.83
2022-12-04T14:37:06.612Z,97.80
2022-12-04T14:39:37.003Z,72.33
2022-12-04T14:42:15.148Z,71.63
2022-12-04T14:44:45.729Z,66.20
2022-12-04T14:47:21.552Z,79.17
2022-12-04T14:50:14.909Z,88.50
2022-12-04T14:52:45.862Z,79.60
2022-12-04T14:55:21.625Z,69.00
2022-12-04T14:57:55.547Z,77.17
2022-12-04T15:00:24.977Z,63.97
2022-12-04T15:02:55.539Z,76.10
2022-12-04T15:05:26.202Z,82.97
2022-12-04T15:07:56.209Z,72.50
2022-12-04T15:10:42.434Z,104.83
2022-12-04T15:13:16.063Z,80.80
2022-12-04T15:15:47.203Z,70.53
2022-12-04T15:18:16.512Z,76.63
2022-12-04T15:20:46.175Z,63.47
2022-12-04T15:23:15.911Z,67.10
2022-12-04T15:25:45.951Z,65.23
2022-12-04T15:28:18.319Z,47.87
2022-12-04T15:30:46.893Z,69.10
2022-12-04T15:33:21.148Z,49.53
2022-12-04T15:35:51.882Z,8.23
2022-12-04T15:38:19.761Z,4.90
2022-12-04T15:40:52.706Z,1.03
2022-12-04T15:43:27.735Z,0.97
2022-12-04T15:45:56.053Z,4.37
2022-12-04T15:48:25.926Z,2.30
2022-12-04T15:51:02.466Z,0.73
2022-12-04T15:53:32.396Z,0.40
2022-12-04T15:56:03.233Z,0.87
2022-12-04T15:58:33.492Z,8.53
2022-12-04T16:01:02.865Z,0.30
2022-12-04T16:03:33.135Z,3.27
2022-12-04T16:06:09.842Z,73.00
2022-12-04T16:08:39.968Z,3.30
2022-12-04T16:11:22.195Z,0.60
2022-12-04T16:14:03.847Z,0.40
2022-12-04T16:16:31.808Z,0.40
2022-12-04T16:18:59.914Z,1.83
2022-12-04T16:21:31.111Z,0.30
2022-12-04T16:24:04.507Z,3.40
2022-12-04T16:26:32.831Z,0.30
2022-12-04T16:29:02.019Z,0.30
2022-12-04T16:31:30.280Z,0.30
2022-12-04T16:33:58.232Z,0.50
2022-12-04T16:36:26.060Z,0.30
2022-12-04T16:38:54.163Z,0.30
2022-12-04T16:41:22.338Z,0.60
2022-12-04T16:43:56.055Z,0.53
2022-12-04T16:46:26.925Z,0.37
2022-12-04T16:48:54.967Z,1.43
2022-12-04T16:51:24.349Z,0.40
2022-12-04T16:53:53.128Z,0.40
2022-12-04T16:56:21.725Z,0.40
2022-12-04T16:58:50.850Z,3.60
2022-12-04T17:01:24.640Z,2.27
2022-12-04T17:03:53.888Z,0.40
2022-12-04T17:06:21.775Z,0.60
2022-12-04T17:08:49.576Z,2.40
2022-12-04T17:11:18.354Z,7.10
2022-12-04T17:13:46.528Z,14.40
2022-12-04T17:16:17.654Z,1.30
2022-12-04T17:18:47.589Z,0.40
2022-12-04T17:21:16.766Z,0.33
2022-12-04T17:23:44.673Z,0.30
2022-12-04T17:26:14.255Z,26.83
2022-12-04T17:28:42.202Z,0.30
2022-12-04T17:31:14.987Z,0.40
2022-12-04T17:33:43.156Z,0.30
2022-12-04T17:36:12.101Z,4.93
2022-12-04T17:38:41.696Z,4.63
2022-12-04T17:41:13.637Z,0.87
2022-12-04T17:43:42.507Z,0.37
2022-12-04T17:46:11.278Z,0.30
2022-12-04T17:48:39.374Z,11.80
2022-12-04T17:51:08.889Z,0.60
2022-12-04T17:53:36.934Z,0.30
2022-12-04T17:56:08.765Z,0.30
2022-12-04T17:58:37.134Z,2.50
2022-12-04T18:01:06.487Z,1.67
2022-12-04T18:03:34.669Z,1.70
2022-12-04T18:06:12.284Z,0.30
2022-12-04T18:08:42.928Z,0.37
2022-12-04T18:11:16.007Z,0.40
2022-12-04T18:13:43.874Z,0.67
2022-12-04T18:16:12.505Z,0.30
2022-12-04T18:18:40.748Z,0.50
2022-12-04T18:21:10.225Z,1.40
2022-12-04T18:23:44.450Z,0.43
2022-12-04T18:26:13.044Z,0.30
2022-12-04T18:28:42.752Z,0.30
2022-12-04T18:31:10.747Z,1.00
2022-12-04T18:33:40.655Z,0.60
2022-12-04T18:36:10.982Z,0.50
2022-12-04T18:38:38.870Z,0.30
2022-12-04T18:41:08.568Z,0.30
2022-12-04T18:43:37.130Z,0.40
2022-12-04T18:46:08.261Z,1.80
2022-12-04T18:48:37.140Z,0.50
2022-12-04T18:51:15.160Z,3.13
2022-12-04T18:53:43.086Z,0.40
2022-12-04T18:56:10.997Z,1.23
2022-12-04T18:58:38.932Z,3.27
2022-12-04T19:01:09.190Z,0.30
2022-12-04T19:03:37.132Z,5.13
2022-12-04T19:06:05.260Z,4.77
2022-12-04T19:08:36.578Z,0.30
2022-12-04T19:11:07.785Z,1.33
2022-12-04T19:13:35.789Z,3.23
2022-12-04T19:16:04.282Z,0.30
2022-12-04T19:18:33.853Z,1.13
2022-12-04T19:21:01.703Z,0.30
2022-12-04T19:23:29.534Z,0.73
2022-12-04T19:25:57.682Z,0.90
2022-12-04T19:28:26.153Z,0.30
2022-12-04T19:30:54.063Z,0.30
2022-12-04T19:33:22.978Z,0.93
2022-12-04T19:35:59.410Z,4.37
2022-12-04T19:38:27.492Z,0.30
2022-12-04T19:41:06.409Z,0.30
2022-12-04T19:43:34.360Z,0.30
2022-12-04T19:46:02.545Z,0.30
2022-12-04T19:48:30.515Z,0.30
2022-12-04T19:51:04.869Z,1.10
2022-12-04T19:53:36.371Z,0.70
2022-12-04T19:56:12.236Z,0.40
2022-12-04T19:58:43.828Z,0.30
2022-12-04T20:01:14.329Z,3.97
2022-12-04T20:03:42.262Z,0.93
2022-12-04T20:06:14.117Z,0.30
2022-12-04T20:08:42.876Z,0.40
2022-12-04T20:11:12.614Z,0.30
2022-12-04T20:13:41.077Z,9.70
2022-12-04T20:16:13.044Z,5.20
2022-12-04T20:18:42.309Z,2.63
2022-12-04T20:21:12.557Z,0.30
2022-12-04T20:23:41.241Z,1.77
2022-12-04T20:26:10.786Z,0.30
2022-12-04T20:28:39.024Z,0.60
2022-12-04T20:31:13.197Z,0.30
2022-12-04T20:33:41.884Z,2.20
2022-12-04T20:36:12.262Z,0.30
2022-12-04T20:38:40.713Z,0.40
2022-12-04T20:41:10.260Z,0.40
2022-12-04T20:43:38.456Z,2.50
2022-12-04T20:46:15.089Z,1.60
2022-12-04T20:48:47.931Z,0.30
2022-12-04T20:51:18.575Z,0.30
2022-12-04T20:53:46.836Z,0.30
2022-12-04T20:56:15.245Z,0.30
2022-12-04T20:58:43.156Z,2.50
2022-12-04T21:01:13.032Z,0.30
2022-12-04T21:03:41.059Z,2.83
2022-12-04T21:06:13.115Z,2.40
2022-12-04T21:08:55.735Z,0.40
2022-12-04T21:11:25.292Z,0.40
2022-12-04T21:14:10.986Z,0.30
2022-12-04T21:16:39.015Z,0.30
2022-12-04T21:19:07.867Z,3.07
2022-12-04T21:21:36.661Z,0.33
2022-12-04T21:24:07.762Z,0.30
2022-12-04T21:26:36.092Z,7.83
2022-12-04T21:29:04.293Z,3.60
2022-12-04T21:31:32.797Z,0.30
2022-12-04T21:34:01.848Z,0.30
2022-12-04T21:36:29.923Z,0.30
2022-12-04T21:38:58.248Z,0.40
2022-12-04T21:41:45.159Z,3.13
2022-12-04T21:44:14.644Z,0.30
2022-12-04T21:46:42.687Z,0.30
2022-12-04T21:49:10.827Z,0.80
2022-12-04T21:54:27.406Z,1.47
2022-12-04T21:56:57.271Z,1.70
2022-12-04T21:59:25.599Z,0.40
2022-12-04T22:01:53.950Z,0.40
2022-12-04T22:04:22.119Z,1.57
2022-12-04T22:06:49.921Z,0.60
2022-12-04T22:09:18.220Z,2.60
2022-12-04T22:11:46.129Z,0.40
2022-12-04T22:14:15.370Z,0.30
2022-12-04T22:16:43.612Z,0.53
2022-12-04T22:19:11.912Z,0.30
2022-12-04T22:21:40.224Z,0.30
2022-12-04T22:24:10.371Z,0.30
2022-12-04T22:26:38.773Z,0.30
2022-12-04T22:29:27.321Z,0.30
2022-12-04T22:31:56.348Z,1.60
2022-12-04T22:34:24.155Z,0.50
2022-12-04T22:36:52.013Z,0.30
2022-12-04T22:39:19.982Z,1.13
2022-12-04T22:41:47.799Z,0.33
2022-12-04T22:44:15.598Z,9.20
2022-12-04T22:46:43.878Z,0.30
2022-12-04T22:49:13.151Z,0.40
2022-12-04T22:51:40.912Z,0.30
2022-12-04T22:54:13.762Z,1.83
2022-12-04T22:56:42.217Z,4.63
2022-12-04T22:59:10.274Z,4.67
2022-12-04T23:01:38.258Z,1.03
2022-12-04T23:04:06.118Z,1.80
2022-12-04T23:06:35.500Z,0.60
2022-12-04T23:09:06.553Z,0.30
2022-12-04T23:11:34.794Z,3.33
2022-12-04T23:14:03.898Z,0.50
2022-12-04T23:16:33.021Z,0.30
2022-12-04T23:19:00.877Z,0.40
2022-12-04T23:21:29.434Z,0.30
2022-12-04T23:23:58.680Z,0.33
2022-12-04T23:26:28.834Z,0.30
2022-12-04T23:28:57.285Z,5.73
2022-12-04T23:31:25.631Z,0.30
2022-12-04T23:33:53.735Z,0.40
2022-12-04T23:36:22.002Z,5.20
2022-12-04T23:38:50.168Z,0.30
2022-12-04T23:41:20.727Z,7.17
2022-12-04T23:43:49.503Z,0.30
2022-12-04T23:46:20.580Z,1.93
2022-12-04T23:48:48.879Z,1.10
2022-12-04T23:51:19.064Z,1.87
2022-12-04T23:53:47.764Z,0.40
2022-12-04T23:56:17.554Z,0.30
2022-12-04T23:58:48.740Z,0.30
